sensor_id;sensor_type;location;lat;lon;timestamp;pressure;altitude;pressure_sealevel;temperature;humidity
23419;BME280;11882;42.522;27.458;2024-01-07T00:00:13;100311.63;;;12.48;nan
23419;BME280;11882;42.522;27.458;2024-01-07T00:02:42;100307.72;;;12.44;nan
23419;BME280;11882;42.522;27.458;2024-01-07T00:05:09;100306.53;;;12.60;nan
23419;BME280;11882;42.522;27.458;2024-01-07T00:07:36;100301.84;;;12.75;nan
23419;BME280;11882;42.522;27.458;2024-01-07T00:10:04;100303.09;;;12.86;nan
23419;BME280;11882;42.522;27.458;2024-01-07T00:12:31;100306.00;;;12.91;nan
23419;BME280;11882;42.522;27.458;2024-01-07T00:14:59;100289.16;;;13.10;nan
23419;BME280;11882;42.522;27.458;2024-01-07T00:17:26;100290.66;;;13.19;nan
23419;BME280;11882;42.522;27.458;2024-01-07T00:19:55;100285.06;;;13.14;nan
23419;BME280;11882;42.522;27.458;2024-01-07T00:22:22;100278.53;;;13.23;nan
23419;BME280;11882;42.522;27.458;2024-01-07T00:24:50;100279.13;;;13.39;nan
23419;BME280;11882;42.522;27.458;2024-01-07T00:27:17;100267.81;;;13.43;nan
23419;BME280;11882;42.522;27.458;2024-01-07T00:29:44;100261.84;;;13.48;nan
23419;BME280;11882;42.522;27.458;2024-01-07T00:32:11;100256.91;;;13.58;nan
23419;BME280;11882;42.522;27.458;2024-01-07T00:34:39;100256.50;;;13.54;nan
23419;BME280;11882;42.522;27.458;2024-01-07T00:37:07;100249.09;;;13.50;nan
23419;BME280;11882;42.522;27.458;2024-01-07T00:39:34;100259.78;;;13.57;nan
23419;BME280;11882;42.522;27.458;2024-01-07T00:42:02;100249.50;;;13.53;nan
23419;BME280;11882;42.522;27.458;2024-01-07T00:44:29;100253.00;;;13.54;nan
23419;BME280;11882;42.522;27.458;2024-01-07T00:46:56;100250.94;;;13.63;nan
23419;BME280;11882;42.522;27.458;2024-01-07T00:49:23;100253.78;;;13.81;nan
23419;BME280;11882;42.522;27.458;2024-01-07T00:51:51;100241.63;;;13.85;nan
23419;BME280;11882;42.522;27.458;2024-01-07T00:54:20;100240.56;;;13.93;nan
23419;BME280;11882;42.522;27.458;2024-01-07T00:56:47;100241.41;;;13.86;nan
23419;BME280;11882;42.522;27.458;2024-01-07T00:59:14;100233.22;;;13.68;nan
23419;BME280;11882;42.522;27.458;2024-01-07T01:01:41;100227.03;;;13.74;nan
23419;BME280;11882;42.522;27.458;2024-01-07T01:04:08;100222.50;;;13.81;nan
23419;BME280;11882;42.522;27.458;2024-01-07T01:06:36;100212.91;;;13.54;nan
23419;BME280;11882;42.522;27.458;2024-01-07T01:09:03;100208.59;;;13.53;nan
23419;BME280;11882;42.522;27.458;2024-01-07T01:11:32;100195.44;;;13.45;nan
23419;BME280;11882;42.522;27.458;2024-01-07T01:13:59;100202.25;;;13.28;nan
23419;BME280;11882;42.522;27.458;2024-01-07T01:16:26;100195.66;;;13.10;nan
23419;BME280;11882;42.522;27.458;2024-01-07T01:18:53;100187.84;;;13.15;nan
23419;BME280;11882;42.522;27.458;2024-01-07T01:21:20;100181.28;;;13.05;nan
23419;BME280;11882;42.522;27.458;2024-01-07T01:23:48;100189.53;;;13.16;nan
23419;BME280;11882;42.522;27.458;2024-01-07T01:26:16;100179.44;;;13.32;nan
23419;BME280;11882;42.522;27.458;2024-01-07T01:28:44;100175.09;;;13.44;nan
23419;BME280;11882;42.522;27.458;2024-01-07T01:31:13;100184.34;;;13.48;nan
23419;BME280;11882;42.522;27.458;2024-01-07T01:33:41;100179.41;;;13.51;nan
23419;BME280;11882;42.522;27.458;2024-01-07T01:36:08;100169.38;;;13.34;nan
23419;BME280;11882;42.522;27.458;2024-01-07T01:38:36;100173.69;;;13.08;nan
23419;BME280;11882;42.522;27.458;2024-01-07T01:41:03;100166.28;;;13.04;nan
23419;BME280;11882;42.522;27.458;2024-01-07T01:43:30;100175.13;;;12.98;nan
23419;BME280;11882;42.522;27.458;2024-01-07T01:45:59;100166.91;;;12.86;nan
23419;BME280;11882;42.522;27.458;2024-01-07T01:48:26;100157.47;;;12.83;nan
23419;BME280;11882;42.522;27.458;2024-01-07T01:50:55;100159.53;;;12.95;nan
23419;BME280;11882;42.522;27.458;2024-01-07T01:53:24;100149.47;;;12.90;nan
23419;BME280;11882;42.522;27.458;2024-01-07T01:55:52;100142.06;;;12.72;nan
23419;BME280;11882;42.522;27.458;2024-01-07T01:58:20;100149.06;;;12.80;nan
23419;BME280;11882;42.522;27.458;2024-01-07T02:00:48;100137.16;;;12.69;nan
23419;BME280;11882;42.522;27.458;2024-01-07T02:03:18;100148.00;;;12.48;nan
23419;BME280;11882;42.522;27.458;2024-01-07T02:05:45;100147.00;;;12.55;nan
23419;BME280;11882;42.522;27.458;2024-01-07T02:08:13;100130.97;;;12.62;nan
23419;BME280;11882;42.522;27.458;2024-01-07T02:10:40;100127.50;;;12.62;nan
23419;BME280;11882;42.522;27.458;2024-01-07T02:13:07;100122.16;;;12.62;nan
23419;BME280;11882;42.522;27.458;2024-01-07T02:15:34;100113.72;;;12.78;nan
23419;BME280;11882;42.522;27.458;2024-01-07T02:18:01;100116.41;;;12.84;nan
23419;BME280;11882;42.522;27.458;2024-01-07T02:20:30;100116.59;;;12.83;nan
23419;BME280;11882;42.522;27.458;2024-01-07T02:22:57;100103.03;;;12.91;nan
23419;BME280;11882;42.522;27.458;2024-01-07T02:25:26;100099.34;;;12.92;nan
23419;BME280;11882;42.522;27.458;2024-01-07T02:27:53;100089.69;;;12.91;nan
23419;BME280;11882;42.522;27.458;2024-01-07T02:30:20;100089.47;;;12.93;nan
23419;BME280;11882;42.522;27.458;2024-01-07T02:32:48;100086.38;;;12.96;nan
23419;BME280;11882;42.522;27.458;2024-01-07T02:35:15;100069.97;;;12.85;nan
23419;BME280;11882;42.522;27.458;2024-01-07T02:37:43;100064.00;;;12.90;nan
23419;BME280;11882;42.522;27.458;2024-01-07T02:40:11;100059.88;;;12.94;nan
23419;BME280;11882;42.522;27.458;2024-01-07T02:42:40;100037.91;;;12.99;nan
23419;BME280;11882;42.522;27.458;2024-01-07T02:45:08;100044.91;;;12.93;nan
23419;BME280;11882;42.522;27.458;2024-01-07T02:47:36;100029.69;;;13.00;nan
23419;BME280;11882;42.522;27.458;2024-01-07T02:50:03;100024.16;;;12.95;nan
23419;BME280;11882;42.522;27.458;2024-01-07T02:52:30;100028.69;;;12.88;nan
23419;BME280;11882;42.522;27.458;2024-01-07T02:54:58;100004.84;;;12.86;nan
23419;BME280;11882;42.522;27.458;2024-01-07T02:57:27;100020.03;;;12.93;nan
23419;BME280;11882;42.522;27.458;2024-01-07T02:59:55;100018.25;;;12.73;nan
23419;BME280;11882;42.522;27.458;2024-01-07T03:02:23;99994.81;;;12.82;nan
23419;BME280;11882;42.522;27.458;2024-01-07T03:04:50;99994.75;;;12.95;nan
23419;BME280;11882;42.522;27.458;2024-01-07T03:07:17;99998.84;;;13.04;nan
23419;BME280;11882;42.522;27.458;2024-01-07T03:09:44;99985.66;;;13.16;nan
23419;BME280;11882;42.522;27.458;2024-01-07T03:12:11;99983.38;;;13.26;nan
23419;BME280;11882;42.522;27.458;2024-01-07T03:14:40;99982.28;;;13.40;nan
23419;BME280;11882;42.522;27.458;2024-01-07T03:17:10;99987.41;;;13.42;nan
23419;BME280;11882;42.522;27.458;2024-01-07T03:19:38;99980.53;;;13.59;nan
23419;BME280;11882;42.522;27.458;2024-01-07T03:22:06;99977.03;;;13.59;nan
23419;BME280;11882;42.522;27.458;2024-01-07T03:24:33;99976.03;;;13.53;nan
23419;BME280;11882;42.522;27.458;2024-01-07T03:27:00;99966.59;;;13.50;nan
23419;BME280;11882;42.522;27.458;2024-01-07T03:29:27;99963.41;;;13.67;nan
23419;BME280;11882;42.522;27.458;2024-01-07T03:31:54;99954.34;;;13.68;nan
23419;BME280;11882;42.522;27.458;2024-01-07T03:34:23;99949.34;;;13.78;nan
23419;BME280;11882;42.522;27.458;2024-01-07T03:36:50;99949.22;;;13.91;nan
23419;BME280;11882;42.522;27.458;2024-01-07T03:39:17;99947.97;;;13.94;nan
23419;BME280;11882;42.522;27.458;2024-01-07T03:41:45;99939.50;;;13.97;nan
23419;BME280;11882;42.522;27.458;2024-01-07T03:44:12;99935.16;;;14.02;nan
23419;BME280;11882;42.522;27.458;2024-01-07T03:46:40;99934.59;;;13.94;nan
23419;BME280;11882;42.522;27.458;2024-01-07T03:49:07;99939.94;;;13.94;nan
23419;BME280;11882;42.522;27.458;2024-01-07T03:51:35;99934.72;;;14.05;nan
23419;BME280;11882;42.522;27.458;2024-01-07T03:54:03;99936.63;;;13.98;nan
23419;BME280;11882;42.522;27.458;2024-01-07T03:56:30;99930.28;;;13.93;nan
23419;BME280;11882;42.522;27.458;2024-01-07T03:58:57;99925.69;;;14.00;nan
23419;BME280;11882;42.522;27.458;2024-01-07T04:01:24;99918.88;;;14.04;nan
23419;BME280;11882;42.522;27.458;2024-01-07T04:03:51;99921.81;;;13.96;nan
23419;BME280;11882;42.522;27.458;2024-01-07T04:06:19;99925.31;;;13.96;nan
23419;BME280;11882;42.522;27.458;2024-01-07T04:08:48;99922.47;;;13.91;nan
23419;BME280;11882;42.522;27.458;2024-01-07T04:11:15;99920.53;;;13.80;nan
23419;BME280;11882;42.522;27.458;2024-01-07T04:13:42;99917.78;;;13.86;nan
23419;BME280;11882;42.522;27.458;2024-01-07T04:16:16;99906.72;;;13.83;nan
23419;BME280;11882;42.522;27.458;2024-01-07T04:18:43;99914.03;;;13.69;nan
23419;BME280;11882;42.522;27.458;2024-01-07T04:21:11;99918.16;;;13.65;nan
23419;BME280;11882;42.522;27.458;2024-01-07T04:23:39;99913.03;;;13.64;nan
23419;BME280;11882;42.522;27.458;2024-01-07T04:26:08;99914.22;;;13.43;nan
23419;BME280;11882;42.522;27.458;2024-01-07T04:28:35;99911.63;;;13.30;nan
23419;BME280;11882;42.522;27.458;2024-01-07T04:31:02;99899.47;;;13.34;nan
23419;BME280;11882;42.522;27.458;2024-01-07T04:33:29;99907.34;;;13.15;nan
23419;BME280;11882;42.522;27.458;2024-01-07T04:35:57;99905.81;;;12.95;nan
23419;BME280;11882;42.522;27.458;2024-01-07T04:38:26;99901.88;;;13.04;nan
23419;BME280;11882;42.522;27.458;2024-01-07T04:40:53;99900.84;;;13.05;nan
23419;BME280;11882;42.522;27.458;2024-01-07T04:43:22;99906.47;;;12.90;nan
23419;BME280;11882;42.522;27.458;2024-01-07T04:45:49;99901.91;;;12.97;nan
23419;BME280;11882;42.522;27.458;2024-01-07T04:48:16;99897.34;;;13.04;nan
23419;BME280;11882;42.522;27.458;2024-01-07T04:50:44;99893.03;;;13.03;nan
23419;BME280;11882;42.522;27.458;2024-01-07T04:53:11;99891.31;;;13.15;nan
23419;BME280;11882;42.522;27.458;2024-01-07T04:55:39;99883.69;;;13.26;nan
23419;BME280;11882;42.522;27.458;2024-01-07T04:58:06;99890.28;;;13.23;nan
23419;BME280;11882;42.522;27.458;2024-01-07T05:00:34;99890.72;;;13.13;nan
23419;BME280;11882;42.522;27.458;2024-01-07T05:03:02;99892.75;;;13.25;nan
23419;BME280;11882;42.522;27.458;2024-01-07T05:05:29;99881.84;;;13.26;nan
23419;BME280;11882;42.522;27.458;2024-01-07T05:07:56;99885.53;;;13.25;nan
23419;BME280;11882;42.522;27.458;2024-01-07T05:10:24;99890.41;;;13.35;nan
23419;BME280;11882;42.522;27.458;2024-01-07T05:12:51;99892.53;;;13.26;nan
23419;BME280;11882;42.522;27.458;2024-01-07T05:15:19;99896.66;;;13.15;nan
23419;BME280;11882;42.522;27.458;2024-01-07T05:17:47;99909.03;;;13.16;nan
23419;BME280;11882;42.522;27.458;2024-01-07T05:20:15;99920.28;;;13.25;nan
23419;BME280;11882;42.522;27.458;2024-01-07T05:22:42;99928.94;;;13.20;nan
23419;BME280;11882;42.522;27.458;2024-01-07T05:25:08;99965.88;;;13.30;nan
23419;BME280;11882;42.522;27.458;2024-01-07T05:27:35;100019.00;;;13.51;nan
23419;BME280;11882;42.522;27.458;2024-01-07T05:30:04;100019.34;;;13.68;nan
23419;BME280;11882;42.522;27.458;2024-01-07T05:32:31;100020.84;;;13.58;nan
23419;BME280;11882;42.522;27.458;2024-01-07T05:35:00;100031.44;;;13.71;nan
23419;BME280;11882;42.522;27.458;2024-01-07T05:37:27;100023.69;;;13.63;nan
23419;BME280;11882;42.522;27.458;2024-01-07T05:39:54;100019.00;;;13.51;nan
23419;BME280;11882;42.522;27.458;2024-01-07T05:42:22;100018.59;;;13.54;nan
23419;BME280;11882;42.522;27.458;2024-01-07T05:44:49;100010.50;;;13.68;nan
23419;BME280;11882;42.522;27.458;2024-01-07T05:47:16;100007.81;;;13.68;nan
23419;BME280;11882;42.522;27.458;2024-01-07T05:49:43;100011.59;;;13.53;nan
23419;BME280;11882;42.522;27.458;2024-01-07T05:52:12;99996.91;;;13.69;nan
23419;BME280;11882;42.522;27.458;2024-01-07T05:54:40;99981.97;;;13.55;nan
23419;BME280;11882;42.522;27.458;2024-01-07T05:57:07;99968.69;;;13.42;nan
23419;BME280;11882;42.522;27.458;2024-01-07T05:59:34;99977.03;;;13.59;nan
23419;BME280;11882;42.522;27.458;2024-01-07T06:02:02;99966.72;;;13.62;nan
23419;BME280;11882;42.522;27.458;2024-01-07T06:04:29;99953.88;;;13.46;nan
23419;BME280;11882;42.522;27.458;2024-01-07T06:06:56;99952.84;;;13.47;nan
23419;BME280;11882;42.522;27.458;2024-01-07T06:09:25;99941.50;;;13.51;nan
23419;BME280;11882;42.522;27.458;2024-01-07T06:11:53;99934.72;;;13.49;nan
23419;BME280;11882;42.522;27.458;2024-01-07T06:14:21;99917.44;;;13.51;nan
23419;BME280;11882;42.522;27.458;2024-01-07T06:16:48;99897.03;;;13.57;nan
23419;BME280;11882;42.522;27.458;2024-01-07T06:19:16;99890.28;;;13.54;nan
23419;BME280;11882;42.522;27.458;2024-01-07T06:21:43;99878.88;;;13.41;nan
23419;BME280;11882;42.522;27.458;2024-01-07T06:24:11;99859.50;;;13.45;nan
23419;BME280;11882;42.522;27.458;2024-01-07T06:26:39;99848.88;;;13.39;nan
23419;BME280;11882;42.522;27.458;2024-01-07T06:29:07;99863.31;;;13.31;nan
23419;BME280;11882;42.522;27.458;2024-01-07T06:31:35;99871.50;;;13.36;nan
23419;BME280;11882;42.522;27.458;2024-01-07T06:34:02;99863.25;;;13.38;nan
23419;BME280;11882;42.522;27.458;2024-01-07T06:36:29;99868.28;;;13.28;nan
23419;BME280;11882;42.522;27.458;2024-01-07T06:38:56;99869.13;;;13.21;nan
23419;BME280;11882;42.522;27.458;2024-01-07T06:41:24;99847.66;;;13.35;nan
23419;BME280;11882;42.522;27.458;2024-01-07T06:43:52;99830.81;;;13.34;nan
23419;BME280;11882;42.522;27.458;2024-01-07T06:46:37;99831.06;;;13.26;nan
23419;BME280;11882;42.522;27.458;2024-01-07T06:49:04;99835.78;;;13.31;nan
23419;BME280;11882;42.522;27.458;2024-01-07T06:51:31;99823.44;;;13.30;nan
23419;BME280;11882;42.522;27.458;2024-01-07T06:53:58;99821.47;;;13.18;nan
23419;BME280;11882;42.522;27.458;2024-01-07T06:56:25;99804.78;;;13.23;nan
23419;BME280;11882;42.522;27.458;2024-01-07T06:58:54;99801.97;;;13.18;nan
23419;BME280;11882;42.522;27.458;2024-01-07T07:01:22;99799.09;;;13.13;nan
23419;BME280;11882;42.522;27.458;2024-01-07T07:03:49;99804.00;;;13.16;nan
23419;BME280;11882;42.522;27.458;2024-01-07T07:06:16;99813.63;;;13.23;nan
23419;BME280;11882;42.522;27.458;2024-01-07T07:08:43;99813.25;;;13.13;nan
23419;BME280;11882;42.522;27.458;2024-01-07T07:11:11;99817.78;;;13.19;nan
23419;BME280;11882;42.522;27.458;2024-01-07T07:13:38;99814.78;;;13.34;nan
23419;BME280;11882;42.522;27.458;2024-01-07T07:16:07;99822.41;;;13.31;nan
23419;BME280;11882;42.522;27.458;2024-01-07T07:18:34;99823.88;;;13.27;nan
23419;BME280;11882;42.522;27.458;2024-01-07T07:21:01;99827.81;;;13.24;nan
23419;BME280;11882;42.522;27.458;2024-01-07T07:23:28;99815.00;;;13.33;nan
23419;BME280;11882;42.522;27.458;2024-01-07T07:25:56;99818.16;;;13.23;nan
23419;BME280;11882;42.522;27.458;2024-01-07T07:28:23;99823.44;;;13.30;nan
23419;BME280;11882;42.522;27.458;2024-01-07T07:30:50;99826.56;;;13.27;nan
23419;BME280;11882;42.522;27.458;2024-01-07T07:33:19;99806.03;;;13.20;nan
23419;BME280;11882;42.522;27.458;2024-01-07T07:35:46;99811.16;;;13.22;nan
23419;BME280;11882;42.522;27.458;2024-01-07T07:38:13;99803.31;;;13.27;nan
23419;BME280;11882;42.522;27.458;2024-01-07T07:40:40;99804.78;;;13.23;nan
23419;BME280;11882;42.522;27.458;2024-01-07T07:43:08;99797.66;;;13.17;nan
23419;BME280;11882;42.522;27.458;2024-01-07T07:45:35;99818.16;;;13.23;nan
23419;BME280;11882;42.522;27.458;2024-01-07T07:48:03;99820.59;;;13.25;nan
23419;BME280;11882;42.522;27.458;2024-01-07T07:50:32;99825.94;;;13.25;nan
23419;BME280;11882;42.522;27.458;2024-01-07T07:52:59;99825.84;;;13.38;nan
23419;BME280;11882;42.522;27.458;2024-01-07T07:55:26;99836.97;;;13.35;nan
23419;BME280;11882;42.522;27.458;2024-01-07T07:57:54;99845.84;;;13.29;nan
23419;BME280;11882;42.522;27.458;2024-01-07T08:00:21;99833.25;;;13.36;nan
23419;BME280;11882;42.522;27.458;2024-01-07T08:02:48;99826.78;;;13.25;nan
23419;BME280;11882;42.522;27.458;2024-01-07T08:05:15;99821.47;;;13.18;nan
23419;BME280;11882;42.522;27.458;2024-01-07T08:07:44;99810.69;;;13.32;nan
23419;BME280;11882;42.522;27.458;2024-01-07T08:10:11;99794.50;;;13.27;nan
23419;BME280;11882;42.522;27.458;2024-01-07T08:12:38;99793.97;;;13.11;nan
23419;BME280;11882;42.522;27.458;2024-01-07T08:15:07;99807.16;;;13.38;nan
23419;BME280;11882;42.522;27.458;2024-01-07T08:17:34;99802.28;;;13.53;nan
23419;BME280;11882;42.522;27.458;2024-01-07T08:20:02;99809.28;;;13.54;nan
23419;BME280;11882;42.522;27.458;2024-01-07T08:22:29;99807.63;;;13.53;nan
23419;BME280;11882;42.522;27.458;2024-01-07T08:24:58;99802.16;;;13.66;nan
23419;BME280;11882;42.522;27.458;2024-01-07T08:27:25;99801.34;;;13.66;nan
23419;BME280;11882;42.522;27.458;2024-01-07T08:29:53;99794.00;;;13.61;nan
23419;BME280;11882;42.522;27.458;2024-01-07T08:32:20;99779.09;;;13.72;nan
23419;BME280;11882;42.522;27.458;2024-01-07T08:34:48;99777.75;;;13.81;nan
23419;BME280;11882;42.522;27.458;2024-01-07T08:37:15;99783.91;;;13.81;nan
23419;BME280;11882;42.522;27.458;2024-01-07T08:39:42;99772.63;;;13.98;nan
23419;BME280;11882;42.522;27.458;2024-01-07T08:42:11;99771.97;;;14.02;nan
23419;BME280;11882;42.522;27.458;2024-01-07T08:44:38;99763.56;;;13.99;nan
23419;BME280;11882;42.522;27.458;2024-01-07T08:47:06;99764.09;;;14.07;nan
23419;BME280;11882;42.522;27.458;2024-01-07T08:49:33;99756.13;;;14.19;nan
23419;BME280;11882;42.522;27.458;2024-01-07T08:52:01;99758.44;;;14.15;nan
23419;BME280;11882;42.522;27.458;2024-01-07T08:54:28;99764.59;;;14.16;nan
23419;BME280;11882;42.522;27.458;2024-01-07T08:56:55;99769.06;;;14.22;nan
23419;BME280;11882;42.522;27.458;2024-01-07T08:59:24;99768.84;;;14.24;nan
23419;BME280;11882;42.522;27.458;2024-01-07T09:01:51;99772.16;;;14.37;nan
23419;BME280;11882;42.522;27.458;2024-01-07T09:04:17;99765.03;;;14.49;nan
23419;BME280;11882;42.522;27.458;2024-01-07T09:06:44;99763.41;;;14.48;nan
23419;BME280;11882;42.522;27.458;2024-01-07T09:09:12;99766.13;;;14.60;nan
23419;BME280;11882;42.522;27.458;2024-01-07T09:11:39;99754.88;;;14.70;nan
23419;BME280;11882;42.522;27.458;2024-01-07T09:14:06;99754.88;;;14.70;nan
23419;BME280;11882;42.522;27.458;2024-01-07T09:16:35;99756.97;;;14.68;nan
23419;BME280;11882;42.522;27.458;2024-01-07T09:19:02;99756.97;;;14.68;nan
23419;BME280;11882;42.522;27.458;2024-01-07T09:21:29;99749.84;;;14.62;nan
23419;BME280;11882;42.522;27.458;2024-01-07T09:23:56;99750.53;;;14.57;nan
23419;BME280;11882;42.522;27.458;2024-01-07T09:26:25;99746.56;;;14.60;nan
23419;BME280;11882;42.522;27.458;2024-01-07T09:28:52;99743.25;;;14.46;nan
23419;BME280;11882;42.522;27.458;2024-01-07T09:31:19;99739.91;;;14.32;nan
23419;BME280;11882;42.522;27.458;2024-01-07T09:33:48;99727.13;;;14.34;nan
23419;BME280;11882;42.522;27.458;2024-01-07T09:36:15;99713.97;;;14.33;nan
23419;BME280;11882;42.522;27.458;2024-01-07T09:38:42;99709.59;;;14.20;nan
23419;BME280;11882;42.522;27.458;2024-01-07T09:41:09;99705.56;;;14.29;nan
23419;BME280;11882;42.522;27.458;2024-01-07T09:43:37;99701.72;;;14.25;nan
23419;BME280;11882;42.522;27.458;2024-01-07T09:46:04;99684.53;;;14.33;nan
23419;BME280;11882;42.522;27.458;2024-01-07T09:48:31;99687.06;;;14.58;nan
23419;BME280;11882;42.522;27.458;2024-01-07T09:51:00;99679.31;;;14.68;nan
23419;BME280;11882;42.522;27.458;2024-01-07T09:53:30;99661.97;;;14.70;nan
23419;BME280;11882;42.522;27.458;2024-01-07T09:56:05;99660.84;;;15.01;nan
23419;BME280;11882;42.522;27.458;2024-01-07T09:58:34;99649.19;;;15.07;nan
23419;BME280;11882;42.522;27.458;2024-01-07T10:01:01;99642.44;;;15.16;nan
23419;BME280;11882;42.522;27.458;2024-01-07T10:03:30;99643.69;;;15.49;nan
23419;BME280;11882;42.522;27.458;2024-01-07T10:05:57;99641.56;;;15.51;nan
23419;BME280;11882;42.522;27.458;2024-01-07T10:08:26;99622.84;;;15.63;nan
23419;BME280;11882;42.522;27.458;2024-01-07T10:10:53;99614.91;;;15.96;nan
23419;BME280;11882;42.522;27.458;2024-01-07T10:13:22;99612.13;;;16.20;nan
23419;BME280;11882;42.522;27.458;2024-01-07T10:15:49;99599.53;;;16.37;nan
23419;BME280;11882;42.522;27.458;2024-01-07T10:18:18;99589.94;;;16.58;nan
23419;BME280;11882;42.522;27.458;2024-01-07T10:20:45;99590.28;;;16.44;nan
23419;BME280;11882;42.522;27.458;2024-01-07T10:23:13;99589.47;;;16.61;nan
23419;BME280;11882;42.522;27.458;2024-01-07T10:25:47;99586.16;;;16.70;nan
23419;BME280;11882;42.522;27.458;2024-01-07T10:28:14;99589.66;;;16.71;nan
23419;BME280;11882;42.522;27.458;2024-01-07T10:30:48;99580.72;;;17.04;nan
23419;BME280;11882;42.522;27.458;2024-01-07T10:33:17;99574.50;;;17.20;nan
23419;BME280;11882;42.522;27.458;2024-01-07T10:35:48;99576.69;;;17.23;nan
23419;BME280;11882;42.522;27.458;2024-01-07T10:38:19;99570.69;;;17.38;nan
23419;BME280;11882;42.522;27.458;2024-01-07T10:40:50;99560.31;;;17.25;nan
23419;BME280;11882;42.522;27.458;2024-01-07T10:43:19;99546.06;;;17.24;nan
23419;BME280;11882;42.522;27.458;2024-01-07T10:45:47;99553.00;;;17.20;nan
23419;BME280;11882;42.522;27.458;2024-01-07T10:48:17;99542.72;;;16.95;nan
23419;BME280;11882;42.522;27.458;2024-01-07T10:50:45;99553.16;;;16.75;nan
23419;BME280;11882;42.522;27.458;2024-01-07T10:53:18;99540.63;;;16.64;nan
23419;BME280;11882;42.522;27.458;2024-01-07T10:55:54;99542.28;;;16.65;nan
23419;BME280;11882;42.522;27.458;2024-01-07T10:58:21;99540.41;;;16.65;nan
23419;BME280;11882;42.522;27.458;2024-01-07T11:00:51;99548.53;;;16.70;nan
23419;BME280;11882;42.522;27.458;2024-01-07T11:03:26;99546.91;;;16.53;nan
23419;BME280;11882;42.522;27.458;2024-01-07T11:05:59;99535.03;;;16.32;nan
23419;BME280;11882;42.522;27.458;2024-01-07T11:08:33;99536.56;;;16.11;nan
23419;BME280;11882;42.522;27.458;2024-01-07T11:11:07;99536.16;;;16.19;nan
23419;BME280;11882;42.522;27.458;2024-01-07T11:13:37;99527.13;;;16.08;nan
23419;BME280;11882;42.522;27.458;2024-01-07T11:16:05;99529.13;;;16.01;nan
23419;BME280;11882;42.522;27.458;2024-01-07T11:18:38;99530.03;;;16.07;nan
23419;BME280;11882;42.522;27.458;2024-01-07T11:21:05;99528.75;;;16.26;nan
23419;BME280;11882;42.522;27.458;2024-01-07T11:23:34;99539.91;;;16.35;nan
23419;BME280;11882;42.522;27.458;2024-01-07T11:26:04;99528.59;;;16.50;nan
23419;BME280;11882;42.522;27.458;2024-01-07T11:28:50;99528.59;;;16.50;nan
23419;BME280;11882;42.522;27.458;2024-01-07T11:31:18;99537.13;;;16.63;nan
23419;BME280;11882;42.522;27.458;2024-01-07T11:33:46;99525.97;;;16.88;nan
23419;BME280;11882;42.522;27.458;2024-01-07T11:36:14;99524.84;;;17.06;nan
23419;BME280;11882;42.522;27.458;2024-01-07T11:38:42;99520.34;;;17.33;nan
23419;BME280;11882;42.522;27.458;2024-01-07T11:41:12;99526.84;;;17.59;nan
23419;BME280;11882;42.522;27.458;2024-01-07T11:43:52;99518.50;;;17.61;nan
23419;BME280;11882;42.522;27.458;2024-01-07T11:46:21;99508.88;;;17.65;nan
23419;BME280;11882;42.522;27.458;2024-01-07T11:48:48;99504.69;;;17.52;nan
23419;BME280;11882;42.522;27.458;2024-01-07T11:51:15;99506.66;;;17.35;nan
23419;BME280;11882;42.522;27.458;2024-01-07T11:53:45;99500.00;;;17.43;nan
23419;BME280;11882;42.522;27.458;2024-01-07T11:56:15;99493.34;;;17.23;nan
23419;BME280;11882;42.522;27.458;2024-01-07T11:58:42;99495.97;;;17.18;nan
23419;BME280;11882;42.522;27.458;2024-01-07T12:01:09;99500.59;;;17.23;nan
23419;BME280;11882;42.522;27.458;2024-01-07T12:03:36;99484.28;;;17.29;nan
23419;BME280;11882;42.522;27.458;2024-01-07T12:06:04;99492.19;;;17.41;nan
23419;BME280;11882;42.522;27.458;2024-01-07T12:08:31;99490.25;;;17.58;nan
23419;BME280;11882;42.522;27.458;2024-01-07T12:10:59;99482.56;;;17.67;nan
23419;BME280;11882;42.522;27.458;2024-01-07T12:13:29;99485.84;;;17.74;nan
23419;BME280;11882;42.522;27.458;2024-01-07T12:15:57;99485.47;;;17.92;nan
23419;BME280;11882;42.522;27.458;2024-01-07T12:18:24;99488.91;;;17.83;nan
23419;BME280;11882;42.522;27.458;2024-01-07T12:20:55;99492.66;;;17.82;nan
23419;BME280;11882;42.522;27.458;2024-01-07T12:23:23;99492.84;;;17.75;nan
23419;BME280;11882;42.522;27.458;2024-01-07T12:25:51;99486.47;;;17.59;nan
23419;BME280;11882;42.522;27.458;2024-01-07T12:28:19;99495.25;;;17.71;nan
23419;BME280;11882;42.522;27.458;2024-01-07T12:30:49;99481.97;;;17.65;nan
23419;BME280;11882;42.522;27.458;2024-01-07T12:33:17;99477.81;;;17.52;nan
23419;BME280;11882;42.522;27.458;2024-01-07T12:35:45;99478.41;;;17.59;nan
23419;BME280;11882;42.522;27.458;2024-01-07T12:38:12;99487.59;;;17.63;nan
23419;BME280;11882;42.522;27.458;2024-01-07T12:40:39;99481.31;;;17.53;nan
23419;BME280;11882;42.522;27.458;2024-01-07T12:43:06;99486.72;;;17.58;nan
23419;BME280;11882;42.522;27.458;2024-01-07T12:45:34;99478.59;;;17.53;nan
23419;BME280;11882;42.522;27.458;2024-01-07T12:48:03;99482.38;;;17.52;nan
23419;BME280;11882;42.522;27.458;2024-01-07T12:50:30;99487.34;;;17.65;nan
23419;BME280;11882;42.522;27.458;2024-01-07T12:52:58;99487.03;;;17.61;nan
23419;BME280;11882;42.522;27.458;2024-01-07T12:55:26;99481.84;;;17.55;nan
23419;BME280;11882;42.522;27.458;2024-01-07T12:57:55;99487.13;;;17.66;nan
23419;BME280;11882;42.522;27.458;2024-01-07T13:00:23;99475.22;;;17.62;nan
23419;BME280;11882;42.522;27.458;2024-01-07T13:02:52;99490.50;;;17.57;nan
23419;BME280;11882;42.522;27.458;2024-01-07T13:05:21;99484.09;;;17.63;nan
23419;BME280;11882;42.522;27.458;2024-01-07T13:07:49;99475.88;;;17.48;nan
23419;BME280;11882;42.522;27.458;2024-01-07T13:10:17;99479.44;;;17.53;nan